createdAt,value
2023-05-09T00:01:07.466Z,49.07
2023-05-09T00:04:11.486Z,48.69
2023-05-09T00:07:14.143Z,47.87
2023-05-09T00:10:16.789Z,50.19
2023-05-09T00:13:19.559Z,50.08
2023-05-09T00:16:24.172Z,49.45
2023-05-09T00:19:28.252Z,50.25
2023-05-09T00:22:30.835Z,51.11
2023-05-09T00:25:33.608Z,50.52
2023-05-09T00:28:36.233Z,50.93
2023-05-09T00:31:38.804Z,51.48
2023-05-09T00:34:42.843Z,50.25
2023-05-09T00:37:45.424Z,50.31
2023-05-09T00:40:48.005Z,50.31
2023-05-09T00:43:50.666Z,50.12
2023-05-09T00:46:53.300Z,51.65
2023-05-09T00:49:58.430Z,51.00
2023-05-09T00:53:01.146Z,51.69
2023-05-09T00:56:04.761Z,50.57
2023-05-09T00:59:07.440Z,51.59
2023-05-09T01:02:10.085Z,51.07
2023-05-09T01:05:14.549Z,52.65
2023-05-09T01:08:29.912Z,53.04
2023-05-09T01:11:40.127Z,51.54
2023-05-09T01:14:52.405Z,52.05
2023-05-09T01:17:58.773Z,52.13
2023-05-09T01:21:08.800Z,52.07
2023-05-09T01:24:26.284Z,53.81
2023-05-09T01:27:44.432Z,53.21
2023-05-09T01:30:52.642Z,53.95
2023-05-09T01:33:58.536Z,54.18
2023-05-09T01:37:02.503Z,53.81
2023-05-09T01:40:09.967Z,54.47
2023-05-09T01:43:15.594Z,54.03
2023-05-09T01:46:21.796Z,54.15
2023-05-09T01:49:26.123Z,55.25
2023-05-09T01:52:30.209Z,55.69
2023-05-09T01:55:35.237Z,55.98
2023-05-09T01:58:39.202Z,55.83
2023-05-09T02:01:43.775Z,57.08
2023-05-09T02:04:47.963Z,57.28
2023-05-09T02:07:50.955Z,57.34
2023-05-09T02:10:54.045Z,56.89
2023-05-09T02:13:56.691Z,58.12
2023-05-09T02:17:06.175Z,57.76
2023-05-09T02:20:11.442Z,58.59
2023-05-09T02:23:14.353Z,58.06
2023-05-09T02:26:17.126Z,58.96
2023-05-09T02:29:22.921Z,59.35
2023-05-09T02:32:31.636Z,59.64
2023-05-09T02:35:35.180Z,60.47
2023-05-09T02:38:38.194Z,60.77
2023-05-09T02:41:40.870Z,61.14
2023-05-09T02:44:43.506Z,61.73
2023-05-09T02:47:47.579Z,61.71
2023-05-09T02:50:50.203Z,62.13
2023-05-09T02:53:52.781Z,61.65
2023-05-09T02:56:55.380Z,62.54
2023-05-09T02:59:57.965Z,63.05
2023-05-09T03:03:01.973Z,62.45
2023-05-09T03:06:04.949Z,63.11
2023-05-09T03:09:08.201Z,63.27
2023-05-09T03:12:10.827Z,63.12
2023-05-09T03:15:13.820Z,64.36
2023-05-09T03:18:18.819Z,64.63
2023-05-09T03:21:21.442Z,65.05
2023-05-09T03:24:24.153Z,65.57
2023-05-09T03:27:27.130Z,64.92
2023-05-09T03:30:29.869Z,65.24
2023-05-09T03:33:33.827Z,66.21
2023-05-09T03:36:36.450Z,65.60
2023-05-09T03:39:39.026Z,64.87
2023-05-09T03:42:41.628Z,66.24
2023-05-09T03:45:44.580Z,66.76
2023-05-09T03:48:48.608Z,66.35
2023-05-09T03:51:51.279Z,66.74
2023-05-09T03:54:53.857Z,67.08
2023-05-09T03:57:56.876Z,67.83
2023-05-09T04:00:59.565Z,67.64
2023-05-09T04:04:03.709Z,67.04
2023-05-09T04:07:06.717Z,68.10
2023-05-09T04:10:10.534Z,67.42
2023-05-09T04:13:13.199Z,67.29
2023-05-09T04:16:16.002Z,67.00
2023-05-09T04:19:20.102Z,69.19
2023-05-09T04:22:22.712Z,68.44
2023-05-09T04:25:25.360Z,67.79
2023-05-09T04:28:27.922Z,68.91
2023-05-09T04:31:31.330Z,69.48
2023-05-09T04:34:35.399Z,69.31
2023-05-09T04:37:38.014Z,69.52
2023-05-09T04:40:40.619Z,70.65
2023-05-09T04:43:43.339Z,70.35
2023-05-09T04:46:46.254Z,69.86
2023-05-09T04:49:50.305Z,69.48
2023-05-09T04:52:52.877Z,68.85
2023-05-09T04:55:56.181Z,69.90
2023-05-09T04:58:58.812Z,69.94
2023-05-09T05:02:01.441Z,69.28
2023-05-09T05:05:11.545Z,69.50
2023-05-09T05:08:15.138Z,71.22
2023-05-09T05:11:18.155Z,70.52
2023-05-09T05:14:20.735Z,70.60
2023-05-09T05:17:24.704Z,70.36
2023-05-09T05:20:28.668Z,70.58
2023-05-09T05:23:31.267Z,70.24
2023-05-09T05:26:33.882Z,69.28
2023-05-09T05:29:36.457Z,68.89
2023-05-09T05:32:39.158Z,69.51
2023-05-09T05:35:43.096Z,68.69
2023-05-09T05:38:45.704Z,68.66
2023-05-09T05:41:48.281Z,67.41
2023-05-09T05:44:50.869Z,68.24
2023-05-09T05:47:54.356Z,66.02
2023-05-09T05:50:58.529Z,68.06
2023-05-09T05:54:01.284Z,67.20
2023-05-09T05:57:03.925Z,66.28
2023-05-09T06:00:10.393Z,67.24
2023-05-09T06:03:14.354Z,65.00
2023-05-09T06:06:18.500Z,66.16
2023-05-09T06:09:21.060Z,63.86
2023-05-09T06:12:23.657Z,66.25
2023-05-09T06:15:26.373Z,63.74
2023-05-09T06:18:28.994Z,64.46
2023-05-09T06:21:34.100Z,63.96
2023-05-09T06:24:36.778Z,63.34
2023-05-09T06:27:39.399Z,64.51
2023-05-09T06:30:41.982Z,62.10
2023-05-09T06:33:44.588Z,63.30
2023-05-09T06:36:48.572Z,62.50
2023-05-09T06:39:51.356Z,62.00
2023-05-09T06:42:53.990Z,61.80
2023-05-09T06:45:56.598Z,62.62
2023-05-09T06:49:01.823Z,61.72
2023-05-09T06:52:06.391Z,59.75
2023-05-09T06:55:10.748Z,61.71
2023-05-09T06:58:13.522Z,61.18
2023-05-09T07:01:16.712Z,59.07
2023-05-09T07:04:19.388Z,59.00
2023-05-09T07:07:23.377Z,58.81
2023-05-09T07:10:26.636Z,61.20
2023-05-09T07:13:29.463Z,60.16
2023-05-09T07:16:32.156Z,58.37
2023-05-09T07:19:34.816Z,56.99
2023-05-09T07:22:39.074Z,57.17
2023-05-09T07:25:41.719Z,58.62
2023-05-09T07:28:44.467Z,54.22
2023-05-09T07:31:47.302Z,54.49
2023-05-09T07:34:49.931Z,56.22
2023-05-09T07:37:53.877Z,55.51
2023-05-09T07:40:56.669Z,55.24
2023-05-09T07:43:59.223Z,52.89
2023-05-09T07:47:02.541Z,54.40
2023-05-09T07:50:05.790Z,52.73
2023-05-09T07:53:09.874Z,51.94
2023-05-09T07:56:13.330Z,54.46
2023-05-09T07:59:15.939Z,51.14
2023-05-09T08:02:18.744Z,52.82
2023-05-09T08:05:21.454Z,51.94
2023-05-09T08:08:25.432Z,50.98
2023-05-09T08:11:28.064Z,54.64
2023-05-09T08:14:30.752Z,52.67
2023-05-09T08:17:33.403Z,50.47
2023-05-09T08:20:36.198Z,48.56
2023-05-09T08:23:41.157Z,48.66
2023-05-09T08:26:44.080Z,48.56
2023-05-09T08:29:46.691Z,48.61
2023-05-09T08:32:49.304Z,44.29
2023-05-09T08:35:52.215Z,45.38
2023-05-09T08:38:56.139Z,46.20
2023-05-09T08:42:00.645Z,45.96
2023-05-09T08:45:08.073Z,46.42
2023-05-09T08:48:11.680Z,46.13
2023-05-09T08:51:15.880Z,43.68
2023-05-09T08:54:22.799Z,44.40
2023-05-09T08:57:25.776Z,42.73
2023-05-09T09:00:29.040Z,43.31
2023-05-09T09:03:31.990Z,41.31
2023-05-09T09:06:35.315Z,42.77
2023-05-09T09:09:43.442Z,41.00
2023-05-09T09:12:48.086Z,41.41
2023-05-09T09:15:55.925Z,41.81
2023-05-09T09:18:59.743Z,40.68
2023-05-09T09:22:05.556Z,40.17
2023-05-09T09:25:10.337Z,40.21
2023-05-09T09:28:13.453Z,40.83
2023-05-09T09:31:23.558Z,39.53
2023-05-09T09:34:26.773Z,38.99
2023-05-09T09:37:29.613Z,36.43
2023-05-09T09:40:33.589Z,36.10
2023-05-09T09:43:36.172Z,36.10
2023-05-09T09:46:43.356Z,39.19
2023-05-09T09:49:48.151Z,37.08
2023-05-09T09:52:51.540Z,34.19
2023-05-09T09:55:55.904Z,36.03
2023-05-09T09:59:10.557Z,35.40
2023-05-09T10:02:13.176Z,35.63
2023-05-09T10:05:20.449Z,34.16
2023-05-09T10:08:23.044Z,33.50
2023-05-09T10:11:27.266Z,35.65
2023-05-09T10:14:34.972Z,32.93
2023-05-09T10:17:38.319Z,32.70
2023-05-09T10:20:42.188Z,31.87
2023-05-09T10:23:49.530Z,32.42
2023-05-09T10:26:57.545Z,32.37
2023-05-09T10:30:05.720Z,30.88
2023-05-09T10:33:10.448Z,32.60
2023-05-09T10:36:14.088Z,30.46
2023-05-09T10:39:17.129Z,30.45
2023-05-09T10:42:21.679Z,29.34
2023-05-09T10:45:24.692Z,32.21
2023-05-09T10:48:27.554Z,30.63
2023-05-09T10:51:30.352Z,28.74
2023-05-09T10:54:33.610Z,29.90
2023-05-09T10:57:40.441Z,32.43
2023-05-09T11:00:43.713Z,29.09
2023-05-09T11:03:56.814Z,28.31
2023-05-09T11:07:00.430Z,27.48
2023-05-09T11:10:10.495Z,28.52
2023-05-09T11:13:14.553Z,27.61
2023-05-09T11:16:17.187Z,28.80
2023-05-09T11:19:36.248Z,28.97
2023-05-09T11:22:41.303Z,27.72
2023-05-09T11:25:46.853Z,26.90
2023-05-09T11:28:56.703Z,27.52
2023-05-09T11:32:06.461Z,28.07
2023-05-09T11:35:10.916Z,26.36
2023-05-09T11:38:22.144Z,28.12
2023-05-09T11:41:24.898Z,27.38
2023-05-09T11:44:30.803Z,27.07
2023-05-09T11:47:33.458Z,28.02
2023-05-09T11:50:36.093Z,27.00
2023-05-09T11:53:46.765Z,26.13
2023-05-09T11:56:49.441Z,26.87
2023-05-09T11:59:53.939Z,28.49
2023-05-09T12:02:56.783Z,26.72
2023-05-09T12:06:00.001Z,27.07
2023-05-09T12:09:02.710Z,26.67
2023-05-09T12:12:10.821Z,27.60
2023-05-09T12:15:15.618Z,27.54
2023-05-09T12:18:18.372Z,28.07
2023-05-09T12:21:21.772Z,27.03
2023-05-09T12:24:26.495Z,26.82
2023-05-09T12:27:29.503Z,27.82
2023-05-09T12:30:33.649Z,27.75
2023-05-09T12:33:39.164Z,26.76
2023-05-09T12:36:50.384Z,26.93
2023-05-09T12:40:04.144Z,27.94
2023-05-09T12:43:08.185Z,28.50
2023-05-09T12:46:12.174Z,27.59
2023-05-09T12:49:21.146Z,28.59
2023-05-09T12:52:23.810Z,27.84
2023-05-09T12:55:26.402Z,28.32
2023-05-09T12:58:31.053Z,31.18
2023-05-09T13:01:37.049Z,28.87
2023-05-09T13:04:39.625Z,31.82
2023-05-09T13:07:43.210Z,27.57
2023-05-09T13:10:46.019Z,29.89
2023-05-09T13:13:48.633Z,27.43
2023-05-09T13:16:52.625Z,27.29
2023-05-09T13:19:55.446Z,28.18
2023-05-09T13:22:58.031Z,30.53
2023-05-09T13:26:00.654Z,28.92
2023-05-09T13:29:03.299Z,28.37
2023-05-09T13:32:07.419Z,28.85
2023-05-09T13:35:10.227Z,27.50
2023-05-09T13:38:13.061Z,29.16
2023-05-09T13:41:20.152Z,28.74
2023-05-09T13:44:23.633Z,29.37
2023-05-09T13:47:27.700Z,29.79
2023-05-09T13:50:30.330Z,28.56
2023-05-09T13:53:32.936Z,27.69
2023-05-09T13:56:35.527Z,28.02
2023-05-09T13:59:38.316Z,29.33
2023-05-09T14:02:42.294Z,29.02
2023-05-09T14:05:44.942Z,28.48
2023-05-09T14:08:47.559Z,29.93
2023-05-09T14:11:51.598Z,30.61
2023-05-09T14:14:54.213Z,30.10
2023-05-09T14:17:58.253Z,29.54
2023-05-09T14:21:01.011Z,29.47
2023-05-09T14:24:03.592Z,30.87
2023-05-09T14:27:06.225Z,31.02
2023-05-09T14:30:10.253Z,29.50
2023-05-09T14:33:14.443Z,31.67
2023-05-09T14:36:17.474Z,29.71
2023-05-09T14:39:20.712Z,29.76
2023-05-09T14:42:23.271Z,30.81
2023-05-09T14:45:26.403Z,31.92
2023-05-09T14:48:30.377Z,31.16
2023-05-09T14:51:33.300Z,31.01
2023-05-09T14:54:36.335Z,30.67
2023-05-09T14:57:38.958Z,30.87
2023-05-09T15:00:41.781Z,29.55
2023-05-09T15:03:47.782Z,29.50
2023-05-09T15:06:50.561Z,31.93
2023-05-09T15:09:53.165Z,32.14
2023-05-09T15:12:56.965Z,30.43
2023-05-09T15:15:59.740Z,30.43
2023-05-09T15:19:05.741Z,30.47
2023-05-09T15:22:09.082Z,30.81
2023-05-09T15:25:12.147Z,30.35
2023-05-09T15:28:14.766Z,30.51
2023-05-09T15:31:21.354Z,30.72
2023-05-09T15:34:25.530Z,30.86
2023-05-09T15:37:28.165Z,30.86
2023-05-09T15:40:30.903Z,31.87
2023-05-09T15:43:33.841Z,29.87
2023-05-09T15:46:36.530Z,30.45
2023-05-09T15:49:40.835Z,30.89
2023-05-09T15:52:43.429Z,30.15
2023-05-09T15:55:46.266Z,31.44
2023-05-09T15:58:48.862Z,31.27
2023-05-09T16:01:51.473Z,32.77
2023-05-09T16:04:55.464Z,31.36
2023-05-09T16:07:58.057Z,32.30
2023-05-09T16:11:01.825Z,32.05
2023-05-09T16:14:05.592Z,33.38
2023-05-09T16:17:08.264Z,31.39
2023-05-09T16:20:14.275Z,32.34
2023-05-09T16:23:17.436Z,32.12
2023-05-09T16:26:20.056Z,32.33
2023-05-09T16:29:23.316Z,31.42
2023-05-09T16:32:26.059Z,31.94
2023-05-09T16:35:30.147Z,32.19
2023-05-09T16:38:32.761Z,32.83
2023-05-09T16:41:35.513Z,32.56
2023-05-09T16:44:38.144Z,32.29
2023-05-09T16:47:40.828Z,32.98
2023-05-09T16:50:45.374Z,33.51
2023-05-09T16:53:47.973Z,33.53
2023-05-09T16:56:50.546Z,33.38
2023-05-09T16:59:53.342Z,33.08
2023-05-09T17:02:55.964Z,32.40
2023-05-09T17:05:59.982Z,31.77
2023-05-09T17:09:02.697Z,31.05
2023-05-09T17:12:05.785Z,31.33
2023-05-09T17:15:10.775Z,31.24
2023-05-09T17:18:17.037Z,31.84
2023-05-09T17:21:23.349Z,33.04
2023-05-09T17:24:25.925Z,32.70
2023-05-09T17:27:28.604Z,32.22
2023-05-09T17:30:31.328Z,33.30
2023-05-09T17:33:33.964Z,34.47
2023-05-09T17:36:37.900Z,33.39
2023-05-09T17:39:42.141Z,33.23
2023-05-09T17:42:44.881Z,32.14
2023-05-09T17:45:47.550Z,33.02
2023-05-09T17:48:50.330Z,35.33
2023-05-09T17:51:56.242Z,35.04
2023-05-09T17:54:58.835Z,32.75
2023-05-09T17:58:01.423Z,33.11
2023-05-09T18:01:04.066Z,34.76
2023-05-09T18:04:06.696Z,35.97
2023-05-09T18:07:10.668Z,34.77
2023-05-09T18:10:13.540Z,35.79
2023-05-09T18:13:17.042Z,34.56
2023-05-09T18:16:19.782Z,36.39
2023-05-09T18:19:22.393Z,35.91
2023-05-09T18:22:26.434Z,34.72
2023-05-09T18:25:29.130Z,34.96
2023-05-09T18:28:38.954Z,35.82
2023-05-09T18:31:41.756Z,34.57
2023-05-09T18:34:44.761Z,34.56
2023-05-09T18:37:48.682Z,35.57
2023-05-09T18:40:52.202Z,35.64
2023-05-09T18:43:56.307Z,37.36
2023-05-09T18:46:59.023Z,37.24
2023-05-09T18:50:12.687Z,36.44
2023-05-09T18:53:16.849Z,37.40
2023-05-09T18:56:20.355Z,36.40
2023-05-09T18:59:23.504Z,37.38
2023-05-09T19:02:26.576Z,38.48
2023-05-09T19:05:29.561Z,36.70
2023-05-09T19:08:33.547Z,37.41
2023-05-09T19:11:36.208Z,38.10
2023-05-09T19:14:38.856Z,37.36
2023-05-09T19:17:41.478Z,37.32
2023-05-09T19:20:44.149Z,37.60
2023-05-09T19:23:49.152Z,39.04
2023-05-09T19:26:51.750Z,38.36
2023-05-09T19:29:54.342Z,36.94
2023-05-09T19:32:57.146Z,37.48
2023-05-09T19:35:59.786Z,38.41
2023-05-09T19:39:05.156Z,36.79
2023-05-09T19:42:07.980Z,38.52
2023-05-09T19:45:11.396Z,37.72
2023-05-09T19:48:15.725Z,38.14
2023-05-09T19:51:18.408Z,37.62
2023-05-09T19:54:24.648Z,38.43
2023-05-09T19:57:27.237Z,39.29
2023-05-09T20:00:29.846Z,39.90
2023-05-09T20:03:33.289Z,40.59
2023-05-09T20:06:36.031Z,39.28
2023-05-09T20:09:39.992Z,40.36
2023-05-09T20:12:43.368Z,40.65
2023-05-09T20:15:46.025Z,40.73
2023-05-09T20:18:50.668Z,41.65
2023-05-09T20:21:54.608Z,41.22
2023-05-09T20:24:58.560Z,41.83
2023-05-09T20:28:01.159Z,42.23
2023-05-09T20:31:03.754Z,40.98
2023-05-09T20:34:10.464Z,41.50
2023-05-09T20:37:13.100Z,41.79
2023-05-09T20:40:17.336Z,42.31
2023-05-09T20:43:20.479Z,42.49
2023-05-09T20:46:23.070Z,42.38
2023-05-09T20:49:26.955Z,42.63
2023-05-09T20:52:29.569Z,42.92
2023-05-09T20:55:33.543Z,42.86
2023-05-09T20:58:36.132Z,43.77
2023-05-09T21:01:40.193Z,44.10
2023-05-09T21:04:42.882Z,44.27
2023-05-09T21:07:45.444Z,44.20
2023-05-09T21:10:52.193Z,44.61
2023-05-09T21:13:54.753Z,45.49
2023-05-09T21:16:58.087Z,45.04
2023-05-09T21:20:00.718Z,44.52
2023-05-09T21:23:03.270Z,45.55
2023-05-09T21:26:07.345Z,44.93
2023-05-09T21:29:09.919Z,45.76
2023-05-09T21:32:12.602Z,46.12
2023-05-09T21:35:15.553Z,46.33
2023-05-09T21:38:18.213Z,46.91
2023-05-09T21:41:22.145Z,46.88
2023-05-09T21:44:25.093Z,46.25
2023-05-09T21:47:27.886Z,46.21
2023-05-09T21:50:30.632Z,47.10
2023-05-09T21:53:33.201Z,47.25
2023-05-09T21:56:37.137Z,47.60
2023-05-09T21:59:39.865Z,47.86
2023-05-09T22:02:42.912Z,48.58
2023-05-09T22:05:45.795Z,48.73
2023-05-09T22:08:48.398Z,48.98
2023-05-09T22:11:52.996Z,48.33
2023-05-09T22:14:56.911Z,48.51
2023-05-09T22:17:59.733Z,49.61
2023-05-09T22:21:02.403Z,49.34
2023-05-09T22:24:05.621Z,50.11
2023-05-09T22:27:10.040Z,49.50
2023-05-09T22:30:13.241Z,49.35
2023-05-09T22:33:15.947Z,49.86
2023-05-09T22:36:18.570Z,49.82
2023-05-09T22:39:21.812Z,50.28
2023-05-09T22:42:25.886Z,51.03
2023-05-09T22:45:28.508Z,50.79
2023-05-09T22:48:31.110Z,50.13
2023-05-09T22:51:34.074Z,51.63
2023-05-09T22:54:36.665Z,51.35
2023-05-09T22:57:41.466Z,51.71
2023-05-09T23:00:44.062Z,51.83
2023-05-09T23:03:46.743Z,51.70
2023-05-09T23:06:49.382Z,52.25
2023-05-09T23:09:51.990Z,52.47
2023-05-09T23:12:55.990Z,52.49
2023-05-09T23:15:58.644Z,53.13
2023-05-09T23:19:01.247Z,52.44
2023-05-09T23:22:04.469Z,52.75
2023-05-09T23:25:08.624Z,52.62
2023-05-09T23:28:12.562Z,52.52
2023-05-09T23:31:15.163Z,52.92
2023-05-09T23:34:18.018Z,54.40
2023-05-09T23:37:21.123Z,53.47
2023-05-09T23:40:23.883Z,54.27
2023-05-09T23:43:28.764Z,54.02
2023-05-09T23:46:31.581Z,53.26
2023-05-09T23:49:34.181Z,54.32
2023-05-09T23:52:36.780Z,54.40
2023-05-09T23:55:39.386Z,55.26
2023-05-09T23:58:43.377Z,54.64
